Main page
METAR-TAF:

METAR-TAF

Airports :

Murcia, Spain

Murcia–San Javier Airport

latitude: 37-47N, longitude: 000-48W, elevation: 5 m

Current weather observation

The report was made 5 hours and 9 minutes ago, at 21:00 UTC
Wind 12 kt from the Northeast
Temperature 22°C
Humidity 69%
Pressure 1017 hPa
Visibility 10 km or more
no clouds below 1500 m and no cumulonimbus

METAR: LELC 282100Z 04012KT CAVOK 22/16 Q1017 NOSIG

Time: 04:09 (02:09 UTC)

Forecast

The report was made 3 hours and 9 minutes ago, at 23:00 UTC
Forecast valid from 29 at 00 UTC to 29 at 24 UTC
Wind 7 kt from the North
Visibility 10 km or more
no clouds below 1500 m and no cumulonimbus
Becoming
from 29 at 06 UTC to 29 at 09 UTC
Wind 10 kt from the East/Southeast
Becoming
from 29 at 16 UTC to 29 at 19 UTC
Wind 7 kt from the Southwest

TAF: LELC 282300Z 2900/2924 01007KT CAVOK TX24/2915Z TN18/2905Z BECMG 2906/2909 11010KT BECMG 2916/2919 22007KT

Weather observations and forecasts of more than 4000 airports (METAR and TAF reports).

The available stations are represented by yellow and red dots on the map.

Hover mouse over dot to see the name of the station.

Then click to see weather observations and forecasts.

To change the map : click on the green buttons with a black cross to zoom in, on the green button with a dash to zoom out, or on the green arrows for adjacent maps.


METAR-TAF: